Time;durP1;ratioP1;P1;durP2;ratioP2;P2;SDS_P1;SDS_P2;PMS_P1;PMS_P2;Temp;Humidity;BMP_temperature;BMP_pressure;BME280_temperature;BME280_humidity;BME280_pressure;Samples;Min_cycle;Max_cycle;Signal;HPM_P1;HPM_P2
2021/05/02 00:01:11;;;;;;;12.20;4.18;;;;;;;;;;5008667;28;20642;-71
2021/05/02 00:03:38;;;;;;;10.90;3.60;;;;;;;;;;5007862;28;20049;-70
2021/05/02 00:06:05;;;;;;;7.15;3.40;;;;;;;;;;5008262;28;20482;-74
2021/05/02 00:08:31;;;;;;;6.70;3.28;;;;;;;;;;5008394;28;20034;-70
2021/05/02 00:10:58;;;;;;;8.52;3.92;;;;;;;;;;5007958;28;20026;-71
2021/05/02 00:13:24;;;;;;;7.72;3.60;;;;;;;;;;5008257;28;20029;-70
2021/05/02 00:15:50;;;;;;;14.02;3.78;;;;;;;;;;5007593;28;20029;-71
2021/05/02 00:18:17;;;;;;;10.13;3.75;;;;;;;;;;5008421;28;20492;-70
2021/05/02 00:20:44;;;;;;;9.57;4.00;;;;;;;;;;5039903;28;20030;-71
2021/05/02 00:23:10;;;;;;;11.05;4.47;;;;;;;;;;5031591;27;20398;-70
2021/05/02 00:25:36;;;;;;;8.82;3.70;;;;;;;;;;4987789;28;20030;-70
2021/05/02 00:28:09;;;;;;;7.15;3.70;;;;;;;;;;4988965;28;20033;-71
2021/05/02 00:30:36;;;;;;;9.60;3.78;;;;;;;;;;4988534;28;20046;-73
2021/05/02 00:33:03;;;;;;;16.35;4.28;;;;;;;;;;4991950;28;20038;-74
2021/05/02 00:35:30;;;;;;;8.57;3.72;;;;;;;;;;5008574;28;20125;-71
2021/05/02 00:37:56;;;;;;;9.20;3.83;;;;;;;;;;5040193;28;20033;-70
2021/05/02 00:40:36;;;;;;;10.57;3.97;;;;;;;;;;5008351;28;20025;-72
2021/05/02 00:43:07;;;;;;;8.75;3.38;;;;;;;;;;5007514;28;20033;-73
2021/05/02 00:45:33;;;;;;;7.97;3.25;;;;;;;;;;5006483;28;20067;-70
2021/05/02 00:48:04;;;;;;;7.15;3.63;;;;;;;;;;5008013;28;20022;-70
2021/05/02 00:50:35;;;;;;;6.30;3.13;;;;;;;;;;5002840;28;20050;-71
2021/05/02 00:53:01;;;;;;;8.73;3.60;;;;;;;;;;4988383;28;20101;-73
2021/05/02 00:55:29;;;;;;;10.02;3.45;;;;;;;;;;5019673;28;20061;-72
2021/05/02 00:58:00;;;;;;;9.10;3.85;;;;;;;;;;4988546;28;20098;-75
2021/05/02 01:00:28;;;;;;;8.77;3.10;;;;;;;;;;5020023;28;20470;-75
2021/05/02 01:02:57;;;;;;;8.85;3.85;;;;;;;;;;5020535;28;20015;-71
2021/05/02 01:05:23;;;;;;;11.95;3.97;;;;;;;;;;5007916;28;20479;-71
2021/05/02 01:07:51;;;;;;;9.27;3.67;;;;;;;;;;5007383;28;20030;-71
2021/05/02 01:10:18;;;;;;;7.93;3.33;;;;;;;;;;4998956;28;20082;-72
2021/05/02 01:12:46;;;;;;;21.58;3.67;;;;;;;;;;5043116;28;20022;-71
2021/05/02 01:15:14;;;;;;;11.48;3.53;;;;;;;;;;5010784;28;20490;-72
2021/05/02 01:17:42;;;;;;;8.52;3.78;;;;;;;;;;5043168;28;20022;-71
2021/05/02 01:20:10;;;;;;;9.00;3.33;;;;;;;;;;5011498;28;20026;-74
2021/05/02 01:22:38;;;;;;;11.45;3.42;;;;;;;;;;5010471;28;20026;-70
2021/05/02 01:25:04;;;;;;;9.00;3.28;;;;;;;;;;5034725;28;20487;-72
2021/05/02 01:27:31;;;;;;;7.50;3.30;;;;;;;;;;4991765;28;20031;-72
2021/05/02 01:29:58;;;;;;;8.45;3.60;;;;;;;;;;4991289;28;20109;-71
2021/05/02 01:32:26;;;;;;;8.25;3.30;;;;;;;;;;4989637;28;20042;-71
2021/05/02 01:34:52;;;;;;;7.72;3.30;;;;;;;;;;4993247;28;20199;-73
2021/05/02 01:37:18;;;;;;;7.65;3.33;;;;;;;;;;5010715;28;20030;-71
2021/05/02 01:39:44;;;;;;;7.63;3.40;;;;;;;;;;5009894;28;20049;-71
2021/05/02 01:42:11;;;;;;;6.57;3.25;;;;;;;;;;5010715;28;20029;-71
2021/05/02 01:44:37;;;;;;;8.18;3.50;;;;;;;;;;5041905;28;20042;-73
2021/05/02 01:47:09;;;;;;;7.68;3.88;;;;;;;;;;5009919;28;20080;-71
2021/05/02 01:49:36;;;;;;;7.10;3.15;;;;;;;;;;5042396;28;20029;-70
2021/05/02 01:52:02;;;;;;;7.13;3.10;;;;;;;;;;4994104;28;20029;-71
2021/05/02 01:54:30;;;;;;;8.10;3.45;;;;;;;;;;4991267;28;20027;-74
2021/05/02 01:56:56;;;;;;;7.68;3.20;;;;;;;;;;4995306;28;20042;-75
2021/05/02 01:59:23;;;;;;;7.65;3.75;;;;;;;;;;5023689;28;20088;-70
2021/05/02 02:01:49;;;;;;;6.97;3.05;;;;;;;;;;4991211;28;20022;-71
2021/05/02 02:04:15;;;;;;;6.68;3.22;;;;;;;;;;4991219;28;20042;-71
2021/05/02 02:06:42;;;;;;;8.15;3.58;;;;;;;;;;5022169;28;20474;-70
2021/05/02 02:09:09;;;;;;;7.20;3.65;;;;;;;;;;4990787;28;20455;-73
2021/05/02 02:11:37;;;;;;;8.93;4.00;;;;;;;;;;5026268;28;20052;-74
2021/05/02 02:14:03;;;;;;;8.45;3.47;;;;;;;;;;5023357;28;20067;-73
2021/05/02 02:16:29;;;;;;;11.13;3.95;;;;;;;;;;5010159;28;20033;-71
2021/05/02 02:18:56;;;;;;;11.25;3.38;;;;;;;;;;5010042;28;20037;-71
2021/05/02 02:21:23;;;;;;;8.25;3.33;;;;;;;;;;5008956;28;20026;-71
2021/05/02 02:23:52;;;;;;;8.25;3.33;;;;;;;;;;5010097;28;20090;-70
2021/05/02 02:26:28;;;;;;;11.55;4.05;;;;;;;;;;5009749;28;20101;-74
2021/05/02 02:28:54;;;;;;;7.80;3.38;;;;;;;;;;5009627;28;20067;-73
2021/05/02 02:31:21;;;;;;;11.35;3.95;;;;;;;;;;5040754;28;20052;-72
2021/05/02 02:33:47;;;;;;;7.32;3.38;;;;;;;;;;5009763;28;20022;-76
2021/05/02 02:36:14;;;;;;;10.00;3.90;;;;;;;;;;5009858;28;20030;-71
2021/05/02 02:38:44;;;;;;;7.38;3.53;;;;;;;;;;5009784;28;20048;-70
2021/05/02 02:41:15;;;;;;;9.43;3.40;;;;;;;;;;5010088;28;20057;-76
2021/05/02 02:43:42;;;;;;;7.10;3.00;;;;;;;;;;5009436;28;20056;-72
2021/05/02 02:46:15;;;;;;;6.97;3.60;;;;;;;;;;5031347;27;20155;-72
2021/05/02 02:48:45;;;;;;;8.95;3.53;;;;;;;;;;5002542;28;20029;-71
2021/05/02 02:51:13;;;;;;;9.45;4.00;;;;;;;;;;5031571;28;20027;-71
2021/05/02 02:53:42;;;;;;;9.80;3.83;;;;;;;;;;5021270;28;20026;-74
2021/05/02 02:56:09;;;;;;;8.77;3.95;;;;;;;;;;5021030;28;20587;-72
2021/05/02 02:58:39;;;;;;;8.48;4.03;;;;;;;;;;5008242;28;20461;-70
2021/05/02 03:01:05;;;;;;;9.65;3.83;;;;;;;;;;5009715;28;20030;-72
2021/05/02 03:03:33;;;;;;;11.88;4.18;;;;;;;;;;5009342;28;20390;-72
2021/05/02 03:06:00;;;;;;;11.15;4.00;;;;;;;;;;5008111;28;20040;-70
2021/05/02 03:08:29;;;;;;;8.40;3.50;;;;;;;;;;5009494;28;20079;-73
2021/05/02 03:10:55;;;;;;;10.35;4.00;;;;;;;;;;4996698;28;20022;-73
2021/05/02 03:13:21;;;;;;;8.50;3.25;;;;;;;;;;4989692;28;20037;-70
2021/05/02 03:15:48;;;;;;;7.85;2.97;;;;;;;;;;4989708;28;20018;-74
2021/05/02 03:18:33;;;;;;;9.35;3.70;;;;;;;;;;5007842;28;20026;-73
2021/05/02 03:21:02;;;;;;;8.60;3.60;;;;;;;;;;5007627;28;20034;-75
2021/05/02 03:23:32;;;;;;;13.05;3.78;;;;;;;;;;5006821;28;20033;-74
2021/05/02 03:26:03;;;;;;;10.65;4.03;;;;;;;;;;5008402;28;20060;-71
2021/05/02 03:28:32;;;;;;;9.02;3.67;;;;;;;;;;5023138;28;20164;-71
2021/05/02 03:30:59;;;;;;;13.35;4.43;;;;;;;;;;4987785;28;20054;-70
2021/05/02 03:33:28;;;;;;;8.63;3.72;;;;;;;;;;4989190;28;20025;-70
2021/05/02 03:35:54;;;;;;;10.80;3.50;;;;;;;;;;4989095;28;20029;-71
2021/05/02 03:38:28;;;;;;;8.05;3.75;;;;;;;;;;5002578;28;20026;-72
2021/05/02 03:40:55;;;;;;;8.52;3.70;;;;;;;;;;4989135;28;20026;-73
2021/05/02 03:43:21;;;;;;;14.00;3.45;;;;;;;;;;4989171;28;20109;-73
2021/05/02 03:45:47;;;;;;;7.60;3.47;;;;;;;;;;4989431;28;20084;-71
2021/05/02 03:48:13;;;;;;;8.02;3.67;;;;;;;;;;5020754;28;20033;-70
2021/05/02 03:50:39;;;;;;;11.18;4.13;;;;;;;;;;5002143;28;20034;-74
2021/05/02 03:53:05;;;;;;;10.70;3.65;;;;;;;;;;5008681;28;20056;-71
2021/05/02 03:55:45;;;;;;;7.78;3.55;;;;;;;;;;5007850;28;20038;-73
2021/05/02 03:58:11;;;;;;;10.25;3.78;;;;;;;;;;4995220;28;20500;-70
2021/05/02 04:00:38;;;;;;;8.93;4.13;;;;;;;;;;5008521;28;20546;-71
2021/05/02 04:03:04;;;;;;;8.88;3.20;;;;;;;;;;5008724;28;20038;-73
2021/05/02 04:05:30;;;;;;;10.43;4.13;;;;;;;;;;5008922;28;20037;-72
2021/05/02 04:07:56;;;;;;;10.73;3.70;;;;;;;;;;5008598;28;20053;-74
2021/05/02 04:10:22;;;;;;;12.73;3.50;;;;;;;;;;5016218;28;20538;-72
2021/05/02 04:12:49;;;;;;;9.50;3.92;;;;;;;;;;5023489;28;20026;-72
2021/05/02 04:15:15;;;;;;;12.27;4.40;;;;;;;;;;5008252;28;20083;-71
2021/05/02 04:17:41;;;;;;;13.50;4.38;;;;;;;;;;5008051;28;20026;-72
2021/05/02 04:20:07;;;;;;;12.38;4.13;;;;;;;;;;5008432;28;20032;-72
2021/05/02 04:22:34;;;;;;;11.05;4.72;;;;;;;;;;5008574;28;20576;-71
2021/05/02 04:25:00;;;;;;;9.65;3.95;;;;;;;;;;5007913;28;20087;-73
2021/05/02 04:27:26;;;;;;;11.88;4.57;;;;;;;;;;5008582;28;20025;-71
2021/05/02 04:29:52;;;;;;;10.95;4.00;;;;;;;;;;5007250;28;20018;-76
2021/05/02 04:32:18;;;;;;;10.95;4.22;;;;;;;;;;5008190;28;20074;-72
2021/05/02 04:34:44;;;;;;;12.88;4.25;;;;;;;;;;5008121;28;20026;-72
2021/05/02 04:37:11;;;;;;;12.65;5.03;;;;;;;;;;5007190;28;20034;-71
2021/05/02 04:39:37;;;;;;;14.75;4.60;;;;;;;;;;5007335;28;20531;-71
2021/05/02 04:42:05;;;;;;;11.75;4.32;;;;;;;;;;5007983;28;20037;-75
2021/05/02 04:44:31;;;;;;;11.68;3.97;;;;;;;;;;5008020;28;20086;-70
2021/05/02 04:46:57;;;;;;;12.68;4.38;;;;;;;;;;5005294;28;20058;-71
2021/05/02 04:49:23;;;;;;;13.85;4.88;;;;;;;;;;5039262;28;20066;-71
2021/05/02 04:51:49;;;;;;;22.85;5.38;;;;;;;;;;5007705;28;20026;-71
2021/05/02 04:54:15;;;;;;;10.00;3.83;;;;;;;;;;5039576;28;20034;-73
2021/05/02 04:56:41;;;;;;;9.27;4.68;;;;;;;;;;5007556;28;20022;-71
2021/05/02 04:59:08;;;;;;;12.25;4.97;;;;;;;;;;5007599;28;20721;-70
2021/05/02 05:01:35;;;;;;;11.88;4.50;;;;;;;;;;5022559;28;20538;-73
2021/05/02 05:04:01;;;;;;;15.50;5.35;;;;;;;;;;4988630;28;20029;-73
2021/05/02 05:06:27;;;;;;;11.73;4.60;;;;;;;;;;4988703;28;20026;-71
2021/05/02 05:08:53;;;;;;;12.15;4.07;;;;;;;;;;4988121;28;20050;-77
2021/05/02 05:11:20;;;;;;;13.80;3.60;;;;;;;;;;5038180;28;20313;-71
2021/05/02 05:13:46;;;;;;;13.98;3.50;;;;;;;;;;5039240;28;20157;-71
2021/05/02 05:16:12;;;;;;;9.40;4.55;;;;;;;;;;5007525;28;20030;-73
2021/05/02 05:18:38;;;;;;;14.13;4.47;;;;;;;;;;5007270;28;20462;-71
2021/05/02 05:21:05;;;;;;;9.43;3.90;;;;;;;;;;5001129;28;20390;-71
2021/05/02 05:23:31;;;;;;;9.68;4.15;;;;;;;;;;4987993;28;20044;-71
2021/05/02 05:25:57;;;;;;;10.25;3.80;;;;;;;;;;4988091;28;20106;-71
2021/05/02 05:28:23;;;;;;;11.25;3.90;;;;;;;;;;4988246;28;20532;-71
2021/05/02 05:30:53;;;;;;;17.13;3.72;;;;;;;;;;4989958;28;20047;-73
2021/05/02 05:33:19;;;;;;;8.93;3.90;;;;;;;;;;5039135;28;20030;-72
2021/05/02 05:35:46;;;;;;;10.98;4.53;;;;;;;;;;5039367;28;20026;-72
2021/05/02 05:38:13;;;;;;;10.73;4.07;;;;;;;;;;5006674;28;20033;-72
2021/05/02 05:40:39;;;;;;;12.98;3.80;;;;;;;;;;5006806;28;20419;-75
2021/05/02 05:43:05;;;;;;;11.50;3.72;;;;;;;;;;5006579;28;20058;-71
2021/05/02 05:45:32;;;;;;;12.93;3.75;;;;;;;;;;5005954;28;20551;-71
2021/05/02 05:47:58;;;;;;;10.15;3.75;;;;;;;;;;5005886;28;20363;-77
2021/05/02 05:50:25;;;;;;;13.50;4.13;;;;;;;;;;5013361;28;20037;-71
2021/05/02 05:52:51;;;;;;;11.27;4.18;;;;;;;;;;5015004;28;20018;-73
2021/05/02 05:55:18;;;;;;;13.38;4.18;;;;;;;;;;5009459;28;20026;-77
2021/05/02 05:57:45;;;;;;;12.75;4.40;;;;;;;;;;5042181;28;20025;-72
2021/05/02 06:00:12;;;;;;;12.35;4.53;;;;;;;;;;5010547;28;20030;-75
2021/05/02 06:02:38;;;;;;;7.97;3.70;;;;;;;;;;5009926;28;20109;-76
2021/05/02 06:05:05;;;;;;;12.75;3.75;;;;;;;;;;5009941;28;20046;-72
2021/05/02 06:07:31;;;;;;;9.00;3.47;;;;;;;;;;5010429;28;20554;-71
2021/05/02 06:09:57;;;;;;;12.30;4.20;;;;;;;;;;5042018;28;20394;-72
2021/05/02 06:12:23;;;;;;;8.85;3.60;;;;;;;;;;5009278;28;20087;-74
2021/05/02 06:14:50;;;;;;;8.32;4.07;;;;;;;;;;5010119;28;20011;-76
2021/05/02 06:17:16;;;;;;;10.90;3.85;;;;;;;;;;5009788;28;20026;-71
2021/05/02 06:19:42;;;;;;;9.00;3.88;;;;;;;;;;5010173;28;20025;-72
2021/05/02 06:22:09;;;;;;;13.65;3.75;;;;;;;;;;5041669;28;20049;-74
2021/05/02 06:24:35;;;;;;;14.52;3.88;;;;;;;;;;5033173;28;20036;-71
2021/05/02 06:27:01;;;;;;;9.50;3.78;;;;;;;;;;4988867;28;20113;-73
2021/05/02 06:29:27;;;;;;;10.52;3.75;;;;;;;;;;4990865;28;20022;-73
2021/05/02 06:31:53;;;;;;;9.75;3.38;;;;;;;;;;5021669;28;20471;-75
2021/05/02 06:34:20;;;;;;;9.57;3.67;;;;;;;;;;4993718;28;20036;-74
2021/05/02 06:36:46;;;;;;;11.25;3.67;;;;;;;;;;5009672;28;20022;-71
2021/05/02 06:39:12;;;;;;;8.95;3.45;;;;;;;;;;5008302;28;20041;-75
2021/05/02 06:41:39;;;;;;;13.00;3.78;;;;;;;;;;5009323;28;20025;-75
2021/05/02 06:44:09;;;;;;;8.98;3.17;;;;;;;;;;5009265;28;20033;-71
2021/05/02 06:46:37;;;;;;;9.15;3.22;;;;;;;;;;5008374;28;20472;-72
2021/05/02 06:49:04;;;;;;;13.00;3.30;;;;;;;;;;5009428;28;20054;-75
2021/05/02 06:51:31;;;;;;;11.95;3.15;;;;;;;;;;5022046;28;20037;-74
2021/05/02 06:53:57;;;;;;;9.60;3.10;;;;;;;;;;5029367;28;20036;-76
2021/05/02 06:56:23;;;;;;;12.07;3.30;;;;;;;;;;5014176;28;20026;-75
2021/05/02 06:58:50;;;;;;;13.77;3.67;;;;;;;;;;5009271;28;20076;-78
2021/05/02 07:01:16;;;;;;;13.48;3.10;;;;;;;;;;5023680;28;20483;-73
2021/05/02 07:03:42;;;;;;;10.48;2.70;;;;;;;;;;4990335;28;20034;-78
2021/05/02 07:06:09;;;;;;;8.70;2.92;;;;;;;;;;5021271;28;20023;-76
2021/05/02 07:08:35;;;;;;;7.65;2.60;;;;;;;;;;4989834;28;20026;-71
2021/05/02 07:11:01;;;;;;;9.85;2.53;;;;;;;;;;4989939;28;20029;-73
2021/05/02 07:13:28;;;;;;;8.85;2.67;;;;;;;;;;4988329;28;20026;-72
2021/05/02 07:15:55;;;;;;;10.38;3.17;;;;;;;;;;4989815;28;20026;-72
2021/05/02 07:18:21;;;;;;;8.65;2.67;;;;;;;;;;4989788;28;20110;-73
2021/05/02 07:20:50;;;;;;;9.63;2.60;;;;;;;;;;4990010;28;20482;-76
2021/05/02 07:23:16;;;;;;;8.40;2.70;;;;;;;;;;4989672;28;20160;-73
2021/05/02 07:25:42;;;;;;;8.73;2.70;;;;;;;;;;5006183;28;20036;-77
2021/05/02 07:28:09;;;;;;;7.63;2.47;;;;;;;;;;5009612;28;20026;-74
2021/05/02 07:30:35;;;;;;;8.40;2.35;;;;;;;;;;5007921;28;20042;-72
2021/05/02 07:33:01;;;;;;;9.13;2.92;;;;;;;;;;5009315;28;20022;-76
2021/05/02 07:35:27;;;;;;;17.60;3.30;;;;;;;;;;5009222;28;20038;-75
2021/05/02 07:37:54;;;;;;;10.70;2.92;;;;;;;;;;5007472;28;20026;-75
2021/05/02 07:40:20;;;;;;;12.82;2.75;;;;;;;;;;5066075;28;20019;-74
2021/05/02 07:42:46;;;;;;;9.95;2.38;;;;;;;;;;5021352;28;20104;-71
2021/05/02 07:45:12;;;;;;;13.15;2.55;;;;;;;;;;5060303;28;20033;-76
2021/05/02 07:47:40;;;;;;;7.03;1.90;;;;;;;;;;5011277;28;20076;-78
2021/05/02 07:50:06;;;;;;;11.40;2.30;;;;;;;;;;5028279;28;20047;-74
2021/05/02 07:52:32;;;;;;;6.30;2.20;;;;;;;;;;5017696;28;20390;-73
2021/05/02 07:54:58;;;;;;;9.18;2.20;;;;;;;;;;4996078;28;20058;-70
2021/05/02 07:57:24;;;;;;;11.90;2.00;;;;;;;;;;5015763;28;20033;-78
2021/05/02 07:59:51;;;;;;;7.03;1.30;;;;;;;;;;5012200;28;20026;-76
2021/05/02 08:02:18;;;;;;;4.13;1.50;;;;;;;;;;5019268;28;20082;-70
2021/05/02 08:04:44;;;;;;;4.68;1.40;;;;;;;;;;5019630;28;20033;-76
2021/05/02 08:07:11;;;;;;;7.22;1.40;;;;;;;;;;5091657;28;20536;-71
2021/05/02 08:09:37;;;;;;;5.20;1.20;;;;;;;;;;5042674;28;20036;-73
2021/05/02 08:12:04;;;;;;;4.95;1.30;;;;;;;;;;5038653;28;20022;-75
2021/05/02 08:14:30;;;;;;;4.85;1.00;;;;;;;;;;5018003;28;20100;-71
2021/05/02 08:16:56;;;;;;;2.75;1.20;;;;;;;;;;5082972;28;20047;-76
2021/05/02 08:19:23;;;;;;;5.95;1.42;;;;;;;;;;5042371;28;20632;-74
2021/05/02 08:21:49;;;;;;;4.65;1.00;;;;;;;;;;5094914;28;20092;-72
2021/05/02 08:24:16;;;;;;;4.72;1.38;;;;;;;;;;5059648;28;20640;-75
2021/05/02 08:26:42;;;;;;;4.30;0.98;;;;;;;;;;5064772;28;20029;-72
2021/05/02 08:29:08;;;;;;;6.10;1.25;;;;;;;;;;5020055;28;20972;-80
2021/05/02 08:31:34;;;;;;;5.65;1.00;;;;;;;;;;5007857;28;20088;-76
2021/05/02 08:34:00;;;;;;;6.90;1.38;;;;;;;;;;5011855;28;20067;-71
2021/05/02 08:36:26;;;;;;;9.48;2.95;;;;;;;;;;5021311;28;20021;-79
2021/05/02 08:38:53;;;;;;;13.25;3.75;;;;;;;;;;5067525;28;20107;-80
2021/05/02 08:41:19;;;;;;;18.85;4.60;;;;;;;;;;5018027;28;20021;-72
2021/05/02 08:43:50;;;;;;;15.63;4.60;;;;;;;;;;5007763;28;20050;-73
2021/05/02 08:46:16;;;;;;;17.27;3.95;;;;;;;;;;5007470;28;20105;-76
2021/05/02 08:48:42;;;;;;;20.05;4.80;;;;;;;;;;5008552;28;20419;-74
2021/05/02 08:51:08;;;;;;;14.40;4.03;;;;;;;;;;5008929;28;20090;-71
2021/05/02 08:53:34;;;;;;;19.38;4.72;;;;;;;;;;5007632;28;20069;-72
2021/05/02 08:56:01;;;;;;;18.50;4.88;;;;;;;;;;5007890;28;20022;-76
2021/05/02 08:58:27;;;;;;;11.18;3.47;;;;;;;;;;5008288;28;20474;-78
2021/05/02 09:00:56;;;;;;;13.30;3.97;;;;;;;;;;5008363;28;20029;-82
2021/05/02 09:03:37;;;;;;;13.30;3.78;;;;;;;;;;4999345;28;20026;-85
2021/05/02 09:06:05;;;;;;;15.07;3.65;;;;;;;;;;5009296;28;20386;-79
2021/05/02 09:08:32;;;;;;;16.80;3.20;;;;;;;;;;5006483;28;20484;-70
2021/05/02 09:10:58;;;;;;;26.30;4.80;;;;;;;;;;5006934;28;20086;-72
2021/05/02 09:13:25;;;;;;;21.58;3.75;;;;;;;;;;5006907;28;20022;-71
2021/05/02 09:16:02;;;;;;;24.33;3.70;;;;;;;;;;5008005;28;20049;-81
2021/05/02 09:18:39;;;;;;;21.15;3.45;;;;;;;;;;5038766;27;20030;-72
2021/05/02 09:21:06;;;;;;;22.90;3.50;;;;;;;;;;4988164;28;20110;-73
2021/05/02 09:23:39;;;;;;;15.45;2.55;;;;;;;;;;5019758;28;20039;-70
2021/05/02 09:26:06;;;;;;;28.27;3.60;;;;;;;;;;4991458;28;20034;-68
2021/05/02 09:28:43;;;;;;;34.30;3.95;;;;;;;;;;4991171;28;20026;-69
2021/05/02 09:31:10;;;;;;;38.55;3.63;;;;;;;;;;4991586;28;20042;-78
2021/05/02 09:33:37;;;;;;;23.83;2.63;;;;;;;;;;5023658;28;20030;-72
2021/05/02 09:36:03;;;;;;;33.88;3.28;;;;;;;;;;4996687;28;20562;-73
2021/05/02 09:38:29;;;;;;;27.13;3.05;;;;;;;;;;5010632;28;20026;-75
2021/05/02 09:40:56;;;;;;;17.08;2.22;;;;;;;;;;5010361;28;20018;-74
2021/05/02 09:43:32;;;;;;;19.02;2.30;;;;;;;;;;5011664;28;20032;-72
2021/05/02 09:48:57;;;;;;;17.95;2.50;;;;;;;;;;5011296;28;20095;-69
2021/05/02 09:51:25;;;;;;;15.65;2.30;;;;;;;;;;5022715;28;20013;-70
2021/05/02 09:54:03;;;;;;;11.07;1.70;;;;;;;;;;5018357;28;20028;-72
2021/05/02 09:56:43;;;;;;;8.30;1.95;;;;;;;;;;5043095;28;20478;-76
2021/05/02 09:59:21;;;;;;;13.65;1.88;;;;;;;;;;5043089;28;20040;-70
2021/05/02 10:02:06;;;;;;;11.80;1.85;;;;;;;;;;5011363;28;20091;-73
2021/05/02 10:04:32;;;;;;;13.50;1.60;;;;;;;;;;5011198;28;20040;-74
2021/05/02 10:06:59;;;;;;;6.30;1.33;;;;;;;;;;5011153;28;20026;-73
2021/05/02 10:09:26;;;;;;;8.20;1.40;;;;;;;;;;5042559;28;20022;-69
2021/05/02 10:11:52;;;;;;;10.88;1.83;;;;;;;;;;5010705;28;20162;-73
2021/05/02 10:14:18;;;;;;;8.20;1.10;;;;;;;;;;5011289;28;20022;-78
2021/05/02 10:16:45;;;;;;;5.57;1.50;;;;;;;;;;5043086;28;20374;-69
2021/05/02 10:19:11;;;;;;;4.15;1.00;;;;;;;;;;5011156;28;20029;-76
2021/05/02 10:21:38;;;;;;;7.10;1.30;;;;;;;;;;5011142;28;20060;-71
2021/05/02 10:24:04;;;;;;;9.07;1.25;;;;;;;;;;5011107;28;20026;-69
2021/05/02 10:26:30;;;;;;;9.05;1.17;;;;;;;;;;5010638;28;20375;-77
2021/05/02 10:28:57;;;;;;;5.07;1.10;;;;;;;;;;5024402;28;20923;-69
2021/05/02 10:31:30;;;;;;;3.97;1.23;;;;;;;;;;4991254;28;20137;-69
2021/05/02 10:33:56;;;;;;;8.82;1.73;;;;;;;;;;5041488;28;20095;-74
2021/05/02 10:36:23;;;;;;;7.65;1.08;;;;;;;;;;5009241;28;20026;-76
2021/05/02 10:38:53;;;;;;;6.85;1.10;;;;;;;;;;5010062;28;20025;-75
2021/05/02 10:41:31;;;;;;;6.28;1.15;;;;;;;;;;5004477;28;20584;-71
2021/05/02 10:43:58;;;;;;;10.65;1.42;;;;;;;;;;4994484;28;20506;-71
2021/05/02 10:46:42;;;;;;;4.57;1.15;;;;;;;;;;5013178;28;20100;-77
2021/05/02 10:49:12;;;;;;;3.58;1.00;;;;;;;;;;5019856;28;20236;-74
2021/05/02 10:51:39;;;;;;;2.60;0.82;;;;;;;;;;5012659;28;20547;-71
2021/05/02 10:54:05;;;;;;;4.15;0.98;;;;;;;;;;5009340;28;20029;-71
2021/05/02 10:56:43;;;;;;;2.95;0.88;;;;;;;;;;5009435;28;20019;-71
2021/05/02 10:59:09;;;;;;;5.13;1.10;;;;;;;;;;5007499;28;20018;-71
2021/05/02 11:01:35;;;;;;;2.47;0.95;;;;;;;;;;5008251;28;20010;-71
2021/05/02 11:04:01;;;;;;;4.50;1.10;;;;;;;;;;5030038;28;20046;-72
2021/05/02 11:06:40;;;;;;;4.80;0.95;;;;;;;;;;5032636;28;20056;-71
2021/05/02 11:09:08;;;;;;;3.10;0.80;;;;;;;;;;5030424;28;20076;-71
2021/05/02 11:11:46;;;;;;;2.40;0.80;;;;;;;;;;5009460;28;20436;-73
2021/05/02 11:14:14;;;;;;;5.68;1.10;;;;;;;;;;5017981;28;20022;-71
2021/05/02 11:16:40;;;;;;;2.85;0.80;;;;;;;;;;5016588;28;20095;-73
2021/05/02 11:19:11;;;;;;;1.88;0.85;;;;;;;;;;5015110;28;20022;-71
2021/05/02 11:22:05;;;;;;;1.88;0.70;;;;;;;;;;5009761;28;20026;-72
2021/05/02 11:24:40;;;;;;;2.88;1.00;;;;;;;;;;5014938;28;20144;-72
2021/05/02 11:29:36;;;;;;;6.00;0.90;;;;;;;;;;5029081;28;20049;-71
2021/05/02 11:32:03;;;;;;;3.30;0.90;;;;;;;;;;5028705;28;20044;-72
2021/05/02 11:34:48;;;;;;;4.93;0.98;;;;;;;;;;5027245;28;20030;-71
2021/05/02 11:37:33;;;;;;;7.10;1.00;;;;;;;;;;5014640;28;20367;-72
2021/05/02 11:39:59;;;;;;;3.95;0.73;;;;;;;;;;5021561;28;20121;-74
2021/05/02 11:42:25;;;;;;;3.40;0.80;;;;;;;;;;5021582;28;20049;-72
2021/05/02 11:44:53;;;;;;;2.67;0.80;;;;;;;;;;4990115;28;20123;-72
2021/05/02 11:47:19;;;;;;;4.40;1.40;;;;;;;;;;5021317;28;20117;-73
2021/05/02 11:49:46;;;;;;;3.10;1.05;;;;;;;;;;5021940;28;20312;-75
2021/05/02 11:52:12;;;;;;;1.05;0.60;;;;;;;;;;5050132;28;20026;-73
2021/05/02 11:54:47;;;;;;;2.25;0.68;;;;;;;;;;5041614;28;20032;-76
2021/05/02 11:57:13;;;;;;;10.85;1.30;;;;;;;;;;5009733;28;20021;-74
2021/05/02 11:59:52;;;;;;;2.55;0.80;;;;;;;;;;5009130;28;20026;-72
2021/05/02 12:02:18;;;;;;;5.43;1.17;;;;;;;;;;5040950;28;20026;-73
2021/05/02 12:04:44;;;;;;;2.97;0.90;;;;;;;;;;5008719;28;20034;-74
2021/05/02 12:07:10;;;;;;;2.30;1.08;;;;;;;;;;5008837;28;20029;-72
2021/05/02 12:09:41;;;;;;;5.60;0.70;;;;;;;;;;5007860;28;20018;-74
2021/05/02 12:12:08;;;;;;;6.67;1.13;;;;;;;;;;5040842;28;20026;-75
2021/05/02 12:14:34;;;;;;;2.28;0.70;;;;;;;;;;5008863;28;20261;-74
2021/05/02 12:17:00;;;;;;;3.25;0.90;;;;;;;;;;5008811;28;20044;-74
2021/05/02 12:19:27;;;;;;;8.07;0.95;;;;;;;;;;5040515;28;20033;-74
2021/05/02 12:21:53;;;;;;;1.27;0.65;;;;;;;;;;5042556;28;20022;-71
2021/05/02 12:24:20;;;;;;;1.67;0.80;;;;;;;;;;5028142;28;20065;-77
2021/05/02 12:26:46;;;;;;;1.27;0.52;;;;;;;;;;5014698;28;20022;-76
2021/05/02 12:29:19;;;;;;;2.42;0.80;;;;;;;;;;5028439;28;20034;-79
2021/05/02 12:31:53;;;;;;;4.07;0.68;;;;;;;;;;5020284;28;20050;-78
2021/05/02 12:34:19;;;;;;;2.38;0.60;;;;;;;;;;4989000;28;20029;-75
2021/05/02 12:36:45;;;;;;;3.08;0.95;;;;;;;;;;5035525;28;20032;-71
2021/05/02 12:39:13;;;;;;;1.38;0.60;;;;;;;;;;5017418;28;20057;-82
2021/05/02 12:41:40;;;;;;;2.08;0.90;;;;;;;;;;5015952;28;20047;-70
2021/05/02 12:44:22;;;;;;;6.03;0.90;;;;;;;;;;5007851;28;20124;-77
2021/05/02 12:46:53;;;;;;;2.92;0.90;;;;;;;;;;5040544;27;20026;-74
2021/05/02 12:49:19;;;;;;;1.52;0.60;;;;;;;;;;5040305;28;20029;-74
2021/05/02 12:51:46;;;;;;;0.52;0.43;;;;;;;;;;5022543;28;20040;-73
2021/05/02 12:54:14;;;;;;;1.85;0.60;;;;;;;;;;5027731;28;20092;-72
2021/05/02 12:56:41;;;;;;;1.45;0.60;;;;;;;;;;5026307;28;20022;-73
2021/05/02 12:59:28;;;;;;;4.72;0.75;;;;;;;;;;5026617;28;20026;-73
2021/05/02 13:02:08;;;;;;;2.63;0.70;;;;;;;;;;5007999;28;20022;-73
2021/05/02 13:04:44;;;;;;;3.92;0.63;;;;;;;;;;5007801;28;20055;-73
2021/05/02 13:07:10;;;;;;;1.80;0.70;;;;;;;;;;5007909;28;20030;-73
2021/05/02 13:09:44;;;;;;;6.45;0.70;;;;;;;;;;5007588;28;20018;-75
2021/05/02 13:12:11;;;;;;;6.72;0.68;;;;;;;;;;5039685;28;20025;-78
2021/05/02 13:14:37;;;;;;;2.10;0.55;;;;;;;;;;5039529;28;20061;-83
2021/05/02 13:17:12;;;;;;;1.50;0.60;;;;;;;;;;5034055;28;20027;-76
2021/05/02 13:19:43;;;;;;;7.82;0.93;;;;;;;;;;5019900;28;20041;-76
2021/05/02 13:22:18;;;;;;;1.00;0.50;;;;;;;;;;4988456;28;20023;-77
2021/05/02 13:24:53;;;;;;;3.33;0.50;;;;;;;;;;5019530;28;20062;-76
2021/05/02 13:27:38;;;;;;;2.35;0.82;;;;;;;;;;5032199;28;20034;-75
2021/05/02 13:30:23;;;;;;;2.55;0.50;;;;;;;;;;5029230;28;20032;-75
2021/05/02 13:32:59;;;;;;;2.03;0.70;;;;;;;;;;5019382;28;20089;-76
2021/05/02 13:35:26;;;;;;;2.05;0.60;;;;;;;;;;5003276;28;20049;-74
2021/05/02 13:37:52;;;;;;;1.15;0.50;;;;;;;;;;5039061;28;20026;-79
2021/05/02 13:40:19;;;;;;;0.95;0.50;;;;;;;;;;5007280;28;20114;-74
2021/05/02 13:42:45;;;;;;;20.25;1.15;;;;;;;;;;5039096;28;20432;-76
2021/05/02 13:45:11;;;;;;;0.77;0.45;;;;;;;;;;5039261;28;20038;-76
2021/05/02 13:47:37;;;;;;;2.08;0.60;;;;;;;;;;5007651;28;20026;-72
2021/05/02 13:50:04;;;;;;;2.42;0.50;;;;;;;;;;5007795;28;20022;-74
2021/05/02 13:52:30;;;;;;;1.98;0.50;;;;;;;;;;5007731;28;20040;-73
2021/05/02 13:54:59;;;;;;;5.68;0.60;;;;;;;;;;5039444;28;20079;-75
2021/05/02 13:57:25;;;;;;;1.58;0.60;;;;;;;;;;5008082;28;20079;-73
2021/05/02 13:59:52;;;;;;;1.25;0.60;;;;;;;;;;5039564;28;20497;-75
2021/05/02 14:02:18;;;;;;;3.47;0.60;;;;;;;;;;5039159;27;20073;-76
2021/05/02 14:04:44;;;;;;;10.13;0.80;;;;;;;;;;5039018;28;20045;-74
2021/05/02 14:07:10;;;;;;;3.70;0.60;;;;;;;;;;5007287;28;20105;-74
2021/05/02 14:09:36;;;;;;;10.25;1.40;;;;;;;;;;4990125;28;20482;-73
2021/05/02 14:12:03;;;;;;;1.77;0.63;;;;;;;;;;4990945;28;20029;-72
2021/05/02 14:14:29;;;;;;;1.38;0.70;;;;;;;;;;5022855;28;20031;-72
2021/05/02 14:16:55;;;;;;;1.95;0.40;;;;;;;;;;4990813;28;20025;-74
2021/05/02 14:19:21;;;;;;;1.65;0.45;;;;;;;;;;4991204;28;20031;-73
2021/05/02 14:21:47;;;;;;;5.45;0.40;;;;;;;;;;5022264;28;20037;-75
2021/05/02 14:24:13;;;;;;;3.92;0.60;;;;;;;;;;4990893;28;20039;-74
2021/05/02 14:26:39;;;;;;;4.35;0.50;;;;;;;;;;5008567;28;20057;-74
2021/05/02 14:29:05;;;;;;;1.15;0.57;;;;;;;;;;5010125;28;20037;-73
2021/05/02 14:31:32;;;;;;;1.42;0.55;;;;;;;;;;5041941;28;20046;-76
2021/05/02 14:33:58;;;;;;;1.98;0.65;;;;;;;;;;5041458;27;20037;-74
2021/05/02 14:36:24;;;;;;;3.17;0.63;;;;;;;;;;5009770;28;20025;-73
2021/05/02 14:38:50;;;;;;;0.68;0.43;;;;;;;;;;5041218;28;20022;-73
2021/05/02 14:41:16;;;;;;;0.80;0.40;;;;;;;;;;5015441;28;20432;-71
2021/05/02 14:43:42;;;;;;;2.25;0.68;;;;;;;;;;5020214;28;20457;-72
2021/05/02 14:46:08;;;;;;;2.42;0.40;;;;;;;;;;5011193;28;20026;-71
2021/05/02 14:48:34;;;;;;;3.92;0.75;;;;;;;;;;5003827;28;20026;-68